Flight Track Log - Related Links

Times and Time Zones

All times are in EDT time to prevent confusion due to time zone crossing. See the LBQ792 flight status page for this flight to view local times or setup timezone preferences in your user account.

Time Position Orientation Groundspeed Altitude Reporting Facility
EDT Latitude Longitude Course Direction KTS MPH feet Rate Location/Type
Mon 08:34:30 PM 40.3875 -76.0900 286° West 193 222 5,200  Level New Center
Mon 08:36:00 PM 40.4896 -76.1350 270° West  Level Estimated
Mon 08:36:31 PM 40.4278 -76.2158 270° West 193 222 7,900  Level New Center
Mon 08:37:31 PM 40.4494 -76.2831 293° West 204 235 8,400 915 Climbing New Center
Mon 08:38:00 PM 40.5192 -76.4448 286° West  Level FlightAware
Mon 08:38:29 PM 40.4972 -76.3361 320° Northwest 214 246 9,700  Level New Center
Mon 08:39:00 PM 40.5394 -76.5355 286° West  Level FlightAware
Mon 08:39:30 PM 40.5483 -76.3567 343° North 208 239 11,100  Level New Center
Mon 08:40:31 PM 40.6119 -76.3781 346° North 208 239 12,000 454 Climbing New Center
Mon 08:41:29 PM 40.6711 -76.3994 345° North 230 265 12,000  Level New Center
Mon 08:43:00 PM 40.7769 -76.4337 346° North  Level Estimated
Mon 08:43:30 PM 40.8150 -76.4469 346° North 260 299 12,000  Level New Center
Mon 08:45:00 PM 40.9196 -76.4809 346° North  Level Estimated
Mon 08:45:29 PM 40.9650 -76.4897 346° North 259 298 12,000  Level New Center
Mon 08:46:30 PM 41.0367 -76.5122 347° North 259 298 12,000  Level New Center
Mon 08:47:30 PM 41.1083 -76.5375 345° North 259 298 12,000  Level New Center
Mon 08:48:29 PM 41.1742 -76.5569 347° North 259 298 12,000  Level New Center
Mon 08:49:29 PM 41.2481 -76.5797 347° North 259 298 12,000  Level New Center
Mon 08:50:30 PM 41.3300 -76.6061 346° North 259 298 12,000  Level New Center
Mon 08:51:31 PM 41.4019 -76.6264 348° North 259 298 12,000  Level New Center
Mon 08:52:31 PM 41.4739 -76.6492 347° North 265 305 12,000  Level New Center
Mon 08:53:31 PM 41.5394 -76.6686 347° North 265 305 12,000 -50 Level New Center
Mon 08:54:31 PM 41.6111 -76.6944 345° North 265 305 11,900 -767 Descending New Center
Mon 08:56:31 PM 41.7667 -76.7472 346° North 282 325 9,700 -1,173 Descending New Center
Mon 08:57:30 PM 41.8431 -76.7625 352° North 282 325 8,400 -1,373 Descending New Center
Mon 08:58:29 PM 41.9194 -76.7750 353° North 276 318 7,000 -1,424 Descending New Center

Login

Don't have an account? Register now (free) for customized features, flight alerts, and more!